createdAt,value
2017-11-03T00:00:16.956Z,29.6
2017-11-03T00:01:17.030Z,29.6
2017-11-03T00:02:17.136Z,29.6
2017-11-03T00:03:15.881Z,29.6
2017-11-03T00:04:17.283Z,29.6
2017-11-03T00:05:16.056Z,29.6
2017-11-03T00:06:16.073Z,29.6
2017-11-03T00:07:15.786Z,29.6
2017-11-03T00:08:16.094Z,29.6
2017-11-03T00:09:17.754Z,29.6
2017-11-03T00:10:17.823Z,29.6
2017-11-03T00:11:17.841Z,29.6
2017-11-03T00:12:17.491Z,29.6
2017-11-03T00:13:17.562Z,29.6
2017-11-03T00:14:17.989Z,29.6
2017-11-03T00:15:17.691Z,29.6
2017-11-03T00:16:17.664Z,29.6
2017-11-03T00:17:18.013Z,29.6
2017-11-03T00:18:16.429Z,29.6
2017-11-03T00:19:16.199Z,29.6
2017-11-03T00:20:17.938Z,29.6
2017-11-03T00:21:18.033Z,29.6
2017-11-03T00:22:16.514Z,29.6
2017-11-03T00:23:18.191Z,29.6
2017-11-03T00:24:16.568Z,29.5
2017-11-03T00:25:18.500Z,29.6
2017-11-03T00:26:18.575Z,29.6
2017-11-03T00:27:16.710Z,29.6
2017-11-03T00:28:18.377Z,29.5
2017-11-03T00:29:17.207Z,29.5
2017-11-03T00:30:16.964Z,29.5
2017-11-03T00:31:17.312Z,29.5
2017-11-03T00:32:19.036Z,29.5
2017-11-03T00:33:19.018Z,29.5
2017-11-03T00:34:17.223Z,29.5
2017-11-03T00:35:18.772Z,29.5
2017-11-03T00:36:17.504Z,29.5
2017-11-03T00:37:17.556Z,29.5
2017-11-03T00:38:17.343Z,29.5
2017-11-03T00:39:18.973Z,29.5
2017-11-03T00:40:17.750Z,29.5
2017-11-03T00:41:19.126Z,29.5
2017-11-03T00:42:19.183Z,29.5
2017-11-03T00:43:19.234Z,29.5
2017-11-03T00:44:18.080Z,29.5
2017-11-03T00:45:17.963Z,29.5
2017-11-03T00:46:19.292Z,29.5
2017-11-03T00:47:17.677Z,29.5
2017-11-03T00:48:18.134Z,29.5
2017-11-03T00:49:18.159Z,29.5
2017-11-03T00:50:17.976Z,29.5
2017-11-03T00:51:19.523Z,29.5
2017-11-03T00:52:18.121Z,29.5
2017-11-03T00:53:18.358Z,29.5
2017-11-03T00:54:19.691Z,29.5
2017-11-03T00:55:19.801Z,29.5
2017-11-03T00:56:19.850Z,29.5
2017-11-03T00:57:19.867Z,29.5
2017-11-03T00:58:18.532Z,29.5
2017-11-03T00:59:20.269Z,29.5
2017-11-03T01:00:18.679Z,29.5
2017-11-03T01:01:18.497Z,29.5
2017-11-03T01:02:18.852Z,29.5
2017-11-03T01:03:18.593Z,29.5
2017-11-03T01:04:20.621Z,29.5
2017-11-03T01:05:20.347Z,29.5
2017-11-03T01:06:18.945Z,29.5
2017-11-03T01:07:18.899Z,29.5
2017-11-03T01:08:20.526Z,29.5
2017-11-03T01:09:20.540Z,29.5
2017-11-03T01:10:20.928Z,29.5
2017-11-03T01:11:19.048Z,29.5
2017-11-03T01:12:19.418Z,29.5
2017-11-03T01:13:21.158Z,29.5
2017-11-03T01:14:19.561Z,29.5
2017-11-03T01:15:19.594Z,29.5
2017-11-03T01:16:21.297Z,29.4
2017-11-03T01:17:19.712Z,29.5
2017-11-03T01:18:21.432Z,29.5
2017-11-03T01:19:21.056Z,29.4
2017-11-03T01:20:21.255Z,29.5
2017-11-03T01:21:19.696Z,29.5
2017-11-03T01:22:19.681Z,29.5
2017-11-03T01:23:21.639Z,29.5
2017-11-03T01:24:21.666Z,29.5
2017-11-03T01:25:19.771Z,29.5
2017-11-03T01:26:21.838Z,29.5
2017-11-03T01:27:20.149Z,29.5
2017-11-03T01:28:21.528Z,29.5
2017-11-03T01:29:20.015Z,29.5
2017-11-03T01:30:20.360Z,29.5
2017-11-03T01:31:20.166Z,29.5
2017-11-03T01:32:21.776Z,29.5
2017-11-03T01:33:20.561Z,29.5
2017-11-03T01:34:20.299Z,29.4
2017-11-03T01:35:22.244Z,29.4
2017-11-03T01:36:22.379Z,29.4
2017-11-03T01:37:20.657Z,29.4
2017-11-03T01:38:20.403Z,29.4
2017-11-03T01:39:22.164Z,29.4
2017-11-03T01:40:22.204Z,29.4
2017-11-03T01:41:22.618Z,29.4
2017-11-03T01:42:20.822Z,29.4
2017-11-03T01:43:22.761Z,29.4
2017-11-03T01:44:22.783Z,29.4
2017-11-03T01:45:22.378Z,29.4
2017-11-03T01:46:22.829Z,29.4
2017-11-03T01:47:21.259Z,29.4
2017-11-03T01:48:21.307Z,29.4
2017-11-03T01:49:22.932Z,29.4
2017-11-03T01:50:21.114Z,29.4
2017-11-03T01:51:21.393Z,29.4
2017-11-03T01:52:23.168Z,29.4
2017-11-03T01:53:21.554Z,29.4
2017-11-03T01:54:21.360Z,29.4
2017-11-03T01:55:23.069Z,29.4
2017-11-03T01:56:21.453Z,29.4
2017-11-03T01:57:23.146Z,29.4
2017-11-03T01:58:21.856Z,29.4
2017-11-03T01:59:23.538Z,29.4
2017-11-03T02:00:24.886Z,29.4
2017-11-03T02:01:21.808Z,29.4
2017-11-03T02:02:21.779Z,29.4
2017-11-03T02:03:23.573Z,29.4
2017-11-03T02:04:22.179Z,29.4
2017-11-03T02:05:22.004Z,29.4
2017-11-03T02:06:22.366Z,29.4
2017-11-03T02:07:22.303Z,29.4
2017-11-03T02:08:24.036Z,29.4
2017-11-03T02:09:24.148Z,29.3
2017-11-03T02:10:24.174Z,29.4
2017-11-03T02:11:22.531Z,29.4
2017-11-03T02:12:22.299Z,29.4
2017-11-03T02:13:22.650Z,29.4
2017-11-03T02:14:22.760Z,29.4
2017-11-03T02:15:24.414Z,29.4
2017-11-03T02:16:22.845Z,29.4
2017-11-03T02:17:22.837Z,29.4
2017-11-03T02:18:24.596Z,29.4
2017-11-03T02:19:22.736Z,29.4
2017-11-03T02:20:24.412Z,29.4
2017-11-03T02:21:22.796Z,29.4
2017-11-03T02:22:24.723Z,29.4
2017-11-03T02:23:24.716Z,29.4
2017-11-03T02:24:24.531Z,29.4
2017-11-03T02:25:23.207Z,29.4
2017-11-03T02:26:23.211Z,29.4
2017-11-03T02:27:23.017Z,29.4
2017-11-03T02:28:24.658Z,29.4
2017-11-03T02:29:24.693Z,29.4
2017-11-03T02:30:23.104Z,29.4
2017-11-03T02:31:24.741Z,29.4
2017-11-03T02:32:24.910Z,29.4
2017-11-03T02:33:25.214Z,29.4
2017-11-03T02:34:23.653Z,29.4
2017-11-03T02:35:25.003Z,29.4
2017-11-03T02:36:23.407Z,29.4
2017-11-03T02:37:23.774Z,29.4
2017-11-03T02:38:23.817Z,29.4
2017-11-03T02:39:23.934Z,29.4
2017-11-03T02:40:25.285Z,29.3
2017-11-03T02:41:24.014Z,29.3
2017-11-03T02:42:23.808Z,29.3
2017-11-03T02:43:25.713Z,29.3
2017-11-03T02:44:25.481Z,29.3
2017-11-03T02:45:25.509Z,29.3
2017-11-03T02:46:24.192Z,29.3
2017-11-03T02:47:23.937Z,29.3
2017-11-03T02:48:24.000Z,29.3
2017-11-03T02:49:25.713Z,29.3
2017-11-03T02:50:25.695Z,29.3
2017-11-03T02:51:24.201Z,29.3
2017-11-03T02:52:24.494Z,29.3
2017-11-03T02:53:24.584Z,29.3
2017-11-03T02:54:26.223Z,29.3
2017-11-03T02:55:24.634Z,29.3
2017-11-03T02:56:24.684Z,29.3
2017-11-03T02:57:24.721Z,29.3
2017-11-03T02:58:26.122Z,29.3
2017-11-03T02:59:24.868Z,29.3
2017-11-03T03:00:24.556Z,29.3
2017-11-03T03:01:26.259Z,29.3
2017-11-03T03:02:24.875Z,29.3
2017-11-03T03:03:24.950Z,29.3
2017-11-03T03:04:26.210Z,29.3
2017-11-03T03:05:26.617Z,29.3
2017-11-03T03:06:24.713Z,29.3
2017-11-03T03:07:24.813Z,29.3
2017-11-03T03:08:26.701Z,29.3
2017-11-03T03:09:25.157Z,29.3
2017-11-03T03:10:25.238Z,29.3
2017-11-03T03:11:26.602Z,29.3
2017-11-03T03:12:25.277Z,29.3
2017-11-03T03:13:26.983Z,29.3
2017-11-03T03:14:27.029Z,29.3
2017-11-03T03:15:27.108Z,29.3
2017-11-03T03:16:25.172Z,29.3
2017-11-03T03:17:27.187Z,29.3
2017-11-03T03:18:27.235Z,29.3
2017-11-03T03:19:27.275Z,29.3
2017-11-03T03:20:26.956Z,29.3
2017-11-03T03:21:27.069Z,29.3
2017-11-03T03:22:27.094Z,29.3
2017-11-03T03:23:25.495Z,29.3
2017-11-03T03:24:25.586Z,29.3
2017-11-03T03:25:25.657Z,29.3
2017-11-03T03:26:27.675Z,29.3
2017-11-03T03:27:27.419Z,29.3
2017-11-03T03:28:27.805Z,29.3
2017-11-03T03:29:27.881Z,29.3
2017-11-03T03:30:27.555Z,29.3
2017-11-03T03:31:25.954Z,29.3
2017-11-03T03:32:26.307Z,29.3
2017-11-03T03:33:26.365Z,29.3
2017-11-03T03:34:27.736Z,29.3
2017-11-03T03:35:27.753Z,29.3
2017-11-03T03:36:26.147Z,29.3
2017-11-03T03:37:26.208Z,29.3
2017-11-03T03:38:26.285Z,29.3
2017-11-03T03:39:26.674Z,29.3
2017-11-03T03:40:26.363Z,29.3
2017-11-03T03:41:28.073Z,29.2
2017-11-03T03:42:26.551Z,29.3
2017-11-03T03:43:28.494Z,29.2
2017-11-03T03:44:28.235Z,29.2
2017-11-03T03:45:26.661Z,29.2
2017-11-03T03:46:28.701Z,29.2
2017-11-03T03:47:27.225Z,29.2
2017-11-03T03:48:27.102Z,29.2
2017-11-03T03:49:28.821Z,29.2
2017-11-03T03:50:28.924Z,29.2
2017-11-03T03:51:28.537Z,29.2
2017-11-03T03:52:28.623Z,29.2
2017-11-03T03:53:27.045Z,29.2
2017-11-03T03:54:27.131Z,29.2
2017-11-03T03:55:28.833Z,29.2
2017-11-03T03:56:29.139Z,29.3
2017-11-03T03:57:28.957Z,29.2
2017-11-03T03:58:29.304Z,29.3
2017-11-03T03:59:29.018Z,29.3
2017-11-03T04:00:27.742Z,29.3
2017-11-03T04:01:27.705Z,29.3
2017-11-03T04:02:27.861Z,29.3
2017-11-03T04:03:27.896Z,29.3
2017-11-03T04:04:29.222Z,29.3
2017-11-03T04:05:27.674Z,29.3
2017-11-03T04:06:28.011Z,29.3
2017-11-03T04:07:29.692Z,29.3
2017-11-03T04:08:27.807Z,29.2
2017-11-03T04:09:29.481Z,29.3
2017-11-03T04:10:29.598Z,29.2
2017-11-03T04:11:29.664Z,29.2
2017-11-03T04:12:28.467Z,29.2
2017-11-03T04:13:28.149Z,29.2
2017-11-03T04:14:30.166Z,29.2
2017-11-03T04:15:28.500Z,29.2
2017-11-03T04:16:29.887Z,29.2
2017-11-03T04:17:28.633Z,29.2
2017-11-03T04:18:28.354Z,29.2
2017-11-03T04:19:30.030Z,29.2
2017-11-03T04:20:28.721Z,29.2
2017-11-03T04:21:28.516Z,29.2
2017-11-03T04:22:28.813Z,29.2
2017-11-03T04:23:30.146Z,29.2
2017-11-03T04:24:28.496Z,29.2
2017-11-03T04:25:28.884Z,29.2
2017-11-03T04:26:30.621Z,29.2
2017-11-03T04:27:30.630Z,29.2
2017-11-03T04:28:28.798Z,29.2
2017-11-03T04:29:30.565Z,29.2
2017-11-03T04:30:30.799Z,29.2
2017-11-03T04:31:29.189Z,29.2
2017-11-03T04:32:28.939Z,29.2
2017-11-03T04:33:29.235Z,29.3
2017-11-03T04:34:30.973Z,29.2
2017-11-03T04:35:31.020Z,29.3
2017-11-03T04:36:31.077Z,29.3
2017-11-03T04:37:31.100Z,29.3
2017-11-03T04:38:29.238Z,29.4
2017-11-03T04:39:31.227Z,29.4
2017-11-03T04:40:30.951Z,29.4
2017-11-03T04:41:29.352Z,29.4
2017-11-03T04:42:31.038Z,29.4
2017-11-03T04:43:31.070Z,29.4
2017-11-03T04:44:31.403Z,29.3
2017-11-03T04:45:31.066Z,29.3
2017-11-03T04:46:29.591Z,29.2
2017-11-03T04:47:29.665Z,29.2
2017-11-03T04:48:30.068Z,29.2
2017-11-03T04:49:31.379Z,29.2
2017-11-03T04:50:30.160Z,29.2
2017-11-03T04:51:31.481Z,29.3
2017-11-03T04:52:31.768Z,29.3
2017-11-03T04:53:31.566Z,29.3
2017-11-03T04:54:29.965Z,29.2
2017-11-03T04:55:31.979Z,29.2
2017-11-03T04:56:30.062Z,29.2
2017-11-03T04:57:30.169Z,29.2
2017-11-03T04:58:31.803Z,29.2
2017-11-03T04:59:30.215Z,29.3
2017-11-03T05:00:31.912Z,29.3
2017-11-03T05:01:31.943Z,29.3
2017-11-03T05:02:30.658Z,29.3
2017-11-03T05:03:30.744Z,29.3
2017-11-03T05:04:32.509Z,29.3
2017-11-03T05:05:30.846Z,29.3
2017-11-03T05:06:30.935Z,29.2
2017-11-03T05:07:32.621Z,29.2
2017-11-03T05:08:30.742Z,29.2
2017-11-03T05:09:32.730Z,29.2
2017-11-03T05:10:30.855Z,29.2
2017-11-03T05:11:30.874Z,29.3
2017-11-03T05:12:31.147Z,29.3
2017-11-03T05:13:31.229Z,29.3
2017-11-03T05:14:30.982Z,29.3
2017-11-03T05:15:32.588Z,29.2
2017-11-03T05:16:32.925Z,29.2
2017-11-03T05:17:31.086Z,29.3
2017-11-03T05:18:31.412Z,29.3
2017-11-03T05:19:31.176Z,29.3
2017-11-03T05:20:31.578Z,29.3
2017-11-03T05:21:31.579Z,29.3
2017-11-03T05:22:33.195Z,29.3
2017-11-03T05:23:32.907Z,29.3
2017-11-03T05:24:31.622Z,29.3
2017-11-03T05:25:31.406Z,29.3
2017-11-03T05:26:32.253Z,29.3
2017-11-03T05:27:35.343Z,29.3
2017-11-03T05:28:33.483Z,29.3
2017-11-03T05:29:33.958Z,29.3
2017-11-03T05:30:31.642Z,29.3
2017-11-03T05:31:33.604Z,29.3
2017-11-03T05:32:31.696Z,29.3
2017-11-03T05:33:33.363Z,29.3
2017-11-03T05:34:33.526Z,29.2
2017-11-03T05:35:33.540Z,29.3
2017-11-03T05:36:33.608Z,29.3
2017-11-03T05:37:34.016Z,29.3
2017-11-03T05:38:32.444Z,29.3
2017-11-03T05:39:33.759Z,29.3
2017-11-03T05:40:32.533Z,29.2
2017-11-03T05:41:32.572Z,29.2
2017-11-03T05:42:33.993Z,29.2
2017-11-03T05:43:33.978Z,29.2
2017-11-03T05:44:32.774Z,29.2
2017-11-03T05:45:32.557Z,29.2
2017-11-03T05:46:32.933Z,29.2
2017-11-03T05:47:33.004Z,29.3
2017-11-03T05:48:33.146Z,29.3
2017-11-03T05:49:34.458Z,29.3
2017-11-03T05:50:33.162Z,29.3
2017-11-03T05:51:34.499Z,29.3
2017-11-03T05:52:33.324Z,29.3
2017-11-03T05:53:33.423Z,29.4
2017-11-03T05:54:33.492Z,29.4
2017-11-03T05:55:33.516Z,29.4
2017-11-03T05:56:33.305Z,29.4
2017-11-03T05:57:34.941Z,29.5
2017-11-03T05:58:33.339Z,29.5
2017-11-03T05:59:33.704Z,29.5
2017-11-03T06:00:35.134Z,29.5
2017-11-03T06:01:35.483Z,29.4
2017-11-03T06:02:33.618Z,29.4
2017-11-03T06:03:33.669Z,29.4
2017-11-03T06:04:35.340Z,29.4
2017-11-03T06:05:34.101Z,29.4
2017-11-03T06:06:35.387Z,29.4
2017-11-03T06:07:33.866Z,29.5
2017-11-03T06:08:34.215Z,29.5
2017-11-03T06:09:35.912Z,29.5
2017-11-03T06:10:35.675Z,29.5
2017-11-03T06:11:34.428Z,29.5
2017-11-03T06:12:34.180Z,29.5
2017-11-03T06:13:35.785Z,29.5
2017-11-03T06:14:34.203Z,29.5
2017-11-03T06:15:34.600Z,29.5
2017-11-03T06:16:36.316Z,29.5
2017-11-03T06:17:34.686Z,29.5
2017-11-03T06:18:34.685Z,29.5
2017-11-03T06:19:34.353Z,29.5
2017-11-03T06:20:34.421Z,29.5
2017-11-03T06:21:34.788Z,29.5
2017-11-03T06:22:36.428Z,29.5
2017-11-03T06:23:34.551Z,29.5
2017-11-03T06:24:36.510Z,29.5
2017-11-03T06:25:36.161Z,29.5
2017-11-03T06:26:36.213Z,29.5
2017-11-03T06:27:36.185Z,29.5
2017-11-03T06:28:36.653Z,29.5
2017-11-03T06:29:35.077Z,29.5
2017-11-03T06:30:36.758Z,29.5
2017-11-03T06:31:36.839Z,29.5
2017-11-03T06:32:36.609Z,29.5
2017-11-03T06:33:36.909Z,29.5
2017-11-03T06:34:36.941Z,29.5
2017-11-03T06:35:35.010Z,29.5
2017-11-03T06:36:35.086Z,29.5
2017-11-03T06:37:37.132Z,29.5
2017-11-03T06:38:37.261Z,29.5
2017-11-03T06:39:35.655Z,29.5
2017-11-03T06:40:35.348Z,29.5
2017-11-03T06:41:37.109Z,29.5
2017-11-03T06:42:35.816Z,29.5
2017-11-03T06:43:35.565Z,29.5
2017-11-03T06:44:35.554Z,29.5
2017-11-03T06:45:36.068Z,29.5
2017-11-03T06:46:37.425Z,29.5
2017-11-03T06:47:35.826Z,29.5
2017-11-03T06:48:36.245Z,29.5
2017-11-03T06:49:35.980Z,29.5
2017-11-03T06:50:37.918Z,29.5
2017-11-03T06:51:37.615Z,29.5
2017-11-03T06:52:35.930Z,29.5
2017-11-03T06:53:36.072Z,29.5
2017-11-03T06:54:37.706Z,29.5
2017-11-03T06:55:38.170Z,29.5
2017-11-03T06:56:36.435Z,29.5
2017-11-03T06:57:37.875Z,29.5
2017-11-03T06:58:36.867Z,29.3
2017-11-03T06:59:37.962Z,28.9
2017-11-03T07:00:38.001Z,28.5
2017-11-03T07:01:36.617Z,28
2017-11-03T07:02:36.628Z,27.5
2017-11-03T07:03:36.824Z,27
2017-11-03T07:04:38.491Z,26.7
2017-11-03T07:05:38.263Z,26.4
2017-11-03T07:06:36.612Z,26.2
2017-11-03T07:07:38.666Z,25.9
2017-11-03T07:08:38.658Z,25.7
2017-11-03T07:09:38.334Z,25.4
2017-11-03T07:10:36.818Z,25.3
2017-11-03T07:11:36.944Z,25.1
2017-11-03T07:12:36.910Z,25
2017-11-03T07:13:38.896Z,24.9
2017-11-03T07:14:38.887Z,24.9
2017-11-03T07:15:38.628Z,24.8
2017-11-03T07:16:38.722Z,24.7
2017-11-03T07:17:38.772Z,24.6
2017-11-03T07:18:38.840Z,24.6
2017-11-03T07:19:39.186Z,24.6
2017-11-03T07:20:38.984Z,24.6
2017-11-03T07:21:37.337Z,24.6
2017-11-03T07:22:37.337Z,24.5
2017-11-03T07:23:39.044Z,24.5
2017-11-03T07:24:39.412Z,24.5
2017-11-03T07:25:39.297Z,24.5
2017-11-03T07:26:37.657Z,24.4
2017-11-03T07:27:37.986Z,24.4
2017-11-03T07:28:39.708Z,24.4
2017-11-03T07:29:39.733Z,24.4
2017-11-03T07:30:37.808Z,24.3
2017-11-03T07:31:39.839Z,24.3
2017-11-03T07:32:38.207Z,24.2
2017-11-03T07:33:38.035Z,24.2
2017-11-03T07:34:40.001Z,24.1
2017-11-03T07:35:38.361Z,24
2017-11-03T07:36:38.100Z,24
2017-11-03T07:37:40.075Z,24
2017-11-03T07:38:39.808Z,23.9
2017-11-03T07:39:38.343Z,23.9
2017-11-03T07:40:38.606Z,23.8
2017-11-03T07:41:38.627Z,23.8
2017-11-03T07:42:40.031Z,23.8
2017-11-03T07:43:40.371Z,23.8
2017-11-03T07:44:40.482Z,23.8
2017-11-03T07:45:38.928Z,23.8
2017-11-03T07:46:38.747Z,23.7
2017-11-03T07:47:39.142Z,23.7
2017-11-03T07:48:40.845Z,23.7
2017-11-03T07:49:39.218Z,23.7
2017-11-03T07:50:40.531Z,23.7
2017-11-03T07:51:39.194Z,23.7
2017-11-03T07:52:40.498Z,23.7
2017-11-03T07:53:40.655Z,23.7
2017-11-03T07:54:39.058Z,23.6
2017-11-03T07:55:39.341Z,23.7
2017-11-03T07:56:41.011Z,23.7
2017-11-03T07:57:41.005Z,23.7
2017-11-03T07:58:41.170Z,23.7
2017-11-03T07:59:41.256Z,23.7
2017-11-03T08:00:39.362Z,23.7
2017-11-03T08:01:39.347Z,23.7
2017-11-03T08:02:39.757Z,23.7
2017-11-03T08:03:40.978Z,23.6
2017-11-03T08:04:41.405Z,23.6
2017-11-03T08:05:39.566Z,23.6
2017-11-03T08:06:39.540Z,23.6
2017-11-03T08:07:39.553Z,23.6
2017-11-03T08:08:39.961Z,23.6
2017-11-03T08:09:41.244Z,23.7
2017-11-03T08:10:40.447Z,23.7
2017-11-03T08:11:41.835Z,23.6
2017-11-03T08:12:39.856Z,23.6
2017-11-03T08:13:41.551Z,23.7
2017-11-03T08:14:41.938Z,23.6
2017-11-03T08:15:40.647Z,23.6
2017-11-03T08:16:40.477Z,23.6
2017-11-03T08:17:40.463Z,23.6
2017-11-03T08:18:41.829Z,23.5
2017-11-03T08:19:40.497Z,23.5
2017-11-03T08:20:41.865Z,23.5
2017-11-03T08:21:40.459Z,23.5
2017-11-03T08:22:40.488Z,23.5
2017-11-03T08:23:42.326Z,23.5
2017-11-03T08:24:40.564Z,23.5
2017-11-03T08:25:42.149Z,23.5
2017-11-03T08:26:40.614Z,23.5
2017-11-03T08:27:41.065Z,23.5
2017-11-03T08:28:42.488Z,23.5
2017-11-03T08:29:42.447Z,23.5
2017-11-03T08:30:41.251Z,23.5
2017-11-03T08:31:41.353Z,23.4
2017-11-03T08:32:42.682Z,23.4
2017-11-03T08:33:41.310Z,23.5
2017-11-03T08:34:42.737Z,23.5
2017-11-03T08:35:41.550Z,23.5
2017-11-03T08:36:43.112Z,23.6
2017-11-03T08:37:41.556Z,23.6
2017-11-03T08:38:41.226Z,23.6
2017-11-03T08:39:43.261Z,23.6
2017-11-03T08:40:43.346Z,23.6
2017-11-03T08:41:43.083Z,23.6
2017-11-03T08:42:41.576Z,23.6
2017-11-03T08:43:41.515Z,23.6
2017-11-03T08:44:41.946Z,23.6
2017-11-03T08:45:43.310Z,23.6
2017-11-03T08:46:42.044Z,23.6
2017-11-03T08:47:42.183Z,23.6
2017-11-03T08:48:43.844Z,23.6
2017-11-03T08:49:42.294Z,23.5
2017-11-03T08:50:43.846Z,23.5
2017-11-03T08:51:42.416Z,23.5
2017-11-03T08:52:43.720Z,23.5
2017-11-03T08:53:43.850Z,23.6
2017-11-03T08:54:44.356Z,23.6
2017-11-03T08:55:44.421Z,23.6
2017-11-03T08:56:42.370Z,23.5
2017-11-03T08:57:42.793Z,23.5
2017-11-03T08:58:44.453Z,23.6
2017-11-03T08:59:44.223Z,23.5
2017-11-03T09:00:42.914Z,23.6
2017-11-03T09:01:42.957Z,23.6
2017-11-03T09:02:44.318Z,23.6
2017-11-03T09:03:44.706Z,23.6
2017-11-03T09:04:43.333Z,23.6
2017-11-03T09:05:43.225Z,23.6
2017-11-03T09:06:44.619Z,23.6
2017-11-03T09:07:43.403Z,23.6
2017-11-03T09:08:43.111Z,23.6
2017-11-03T09:09:45.024Z,23.5
2017-11-03T09:10:44.923Z,23.5
2017-11-03T09:11:45.220Z,23.5
2017-11-03T09:12:45.017Z,23.6
2017-11-03T09:13:43.863Z,23.5
2017-11-03T09:14:45.142Z,23.5
2017-11-03T09:15:45.464Z,23.6
2017-11-03T09:16:45.188Z,23.5
2017-11-03T09:17:45.589Z,23.6
2017-11-03T09:18:45.575Z,23.6
2017-11-03T09:19:43.789Z,23.6
2017-11-03T09:20:45.635Z,23.6
2017-11-03T09:21:45.771Z,23.6
2017-11-03T09:22:45.575Z,23.6
2017-11-03T09:23:45.463Z,23.6
2017-11-03T09:24:44.309Z,23.6
2017-11-03T09:25:46.166Z,23.6
2017-11-03T09:26:44.373Z,23.6
2017-11-03T09:27:45.721Z,23.6
2017-11-03T09:28:46.091Z,23.6
2017-11-03T09:29:45.836Z,23.6
2017-11-03T09:30:46.210Z,23.6
2017-11-03T09:31:44.612Z,23.6
2017-11-03T09:32:44.472Z,23.6
2017-11-03T09:33:46.135Z,23.6
2017-11-03T09:34:44.767Z,23.6
2017-11-03T09:35:46.179Z,23.6
2017-11-03T09:36:46.698Z,23.6
2017-11-03T09:37:46.237Z,23.7
2017-11-03T09:38:44.987Z,23.7
2017-11-03T09:39:46.738Z,23.7
2017-11-03T09:40:45.104Z,23.7
2017-11-03T09:41:46.545Z,23.7
2017-11-03T09:42:45.309Z,23.7
2017-11-03T09:43:46.668Z,23.7
2017-11-03T09:44:45.073Z,23.7
2017-11-03T09:45:45.404Z,23.7
2017-11-03T09:46:46.809Z,23.7
2017-11-03T09:47:45.310Z,23.6
2017-11-03T09:48:47.391Z,23.6
2017-11-03T09:49:45.704Z,23.6
2017-11-03T09:50:47.133Z,23.6
2017-11-03T09:51:47.096Z,23.6
2017-11-03T09:52:47.851Z,23.5
2017-11-03T09:53:45.910Z,23.5
2017-11-03T09:54:45.750Z,23.5
2017-11-03T09:55:45.906Z,23.5
2017-11-03T09:56:47.288Z,23.5
2017-11-03T09:57:46.133Z,23.5
2017-11-03T09:58:47.919Z,23.5
2017-11-03T09:59:46.001Z,23.5
2017-11-03T10:00:47.922Z,23.5
2017-11-03T10:01:46.208Z,23.5
2017-11-03T10:02:47.704Z,23.5
2017-11-03T10:03:46.339Z,23.6
2017-11-03T10:04:47.646Z,23.6
2017-11-03T10:05:47.950Z,23.6
2017-11-03T10:06:48.050Z,23.6
2017-11-03T10:07:47.768Z,23.6
2017-11-03T10:08:47.900Z,23.6
2017-11-03T10:09:47.937Z,23.6
2017-11-03T10:10:46.571Z,23.6
2017-11-03T10:11:46.673Z,23.5
2017-11-03T10:12:48.066Z,23.5
2017-11-03T10:13:46.509Z,23.5
2017-11-03T10:14:48.455Z,23.5
2017-11-03T10:15:46.533Z,23.5
2017-11-03T10:16:46.876Z,23.6
2017-11-03T10:17:46.586Z,23.5
2017-11-03T10:18:49.340Z,23.6
2017-11-03T10:19:47.194Z,23.6
2017-11-03T10:20:48.508Z,23.6
2017-11-03T10:21:48.949Z,23.6
2017-11-03T10:22:46.992Z,23.6
2017-11-03T10:23:47.344Z,23.6
2017-11-03T10:24:49.286Z,23.6
2017-11-03T10:25:49.272Z,23.6
2017-11-03T10:26:47.450Z,23.6
2017-11-03T10:27:47.683Z,23.6
2017-11-03T10:28:49.200Z,23.6
2017-11-03T10:29:50.172Z,23.6
2017-11-03T10:30:47.599Z,23.6
2017-11-03T10:31:48.357Z,23.6
2017-11-03T10:32:47.714Z,23.6
2017-11-03T10:33:49.970Z,23.6
2017-11-03T10:34:49.780Z,23.6
2017-11-03T10:35:50.118Z,23.6
2017-11-03T10:36:48.265Z,23.6
2017-11-03T10:37:50.306Z,23.7
2017-11-03T10:38:47.882Z,24
2017-11-03T10:39:49.810Z,24.2
2017-11-03T10:40:47.953Z,24.4
2017-11-03T10:41:47.985Z,24.7
2017-11-03T10:42:48.519Z,24.9
2017-11-03T10:43:50.126Z,25.1
2017-11-03T10:44:48.588Z,25.3
2017-11-03T10:45:49.760Z,25.4
2017-11-03T10:46:48.203Z,25.6
2017-11-03T10:47:48.306Z,25.7
2017-11-03T10:48:48.606Z,25.9
2017-11-03T10:49:48.385Z,26
2017-11-03T10:50:50.112Z,26.1
2017-11-03T10:51:50.212Z,26.2
2017-11-03T10:52:50.100Z,26.3
2017-11-03T10:53:48.617Z,26.4
2017-11-03T10:54:50.210Z,26.5
2017-11-03T10:55:50.643Z,26.6
2017-11-03T10:56:50.364Z,26.6
2017-11-03T10:57:48.772Z,26.7
2017-11-03T10:58:48.762Z,26.8
2017-11-03T10:59:48.901Z,26.8
2017-11-03T11:00:50.844Z,26.9
2017-11-03T11:01:50.648Z,27
2017-11-03T11:02:50.841Z,27
2017-11-03T11:03:50.593Z,27
2017-11-03T11:04:48.921Z,27.1
2017-11-03T11:05:50.832Z,27.1
2017-11-03T11:06:50.920Z,27.1
2017-11-03T11:07:50.567Z,27.2
2017-11-03T11:08:49.426Z,27.2
2017-11-03T11:09:49.161Z,27.2
2017-11-03T11:10:49.810Z,27.3
2017-11-03T11:11:49.217Z,27.4
2017-11-03T11:12:49.551Z,27.4
2017-11-03T11:13:49.351Z,27.5
2017-11-03T11:14:51.368Z,27.5
2017-11-03T11:15:49.744Z,27.5
2017-11-03T11:16:51.148Z,27.5
2017-11-03T11:17:51.225Z,27.6
2017-11-03T11:18:51.644Z,27.6
2017-11-03T11:19:51.877Z,27.6
2017-11-03T11:20:50.126Z,27.7
2017-11-03T11:21:51.849Z,27.7
2017-11-03T11:22:50.245Z,27.7
2017-11-03T11:23:51.906Z,27.8
2017-11-03T11:24:50.109Z,27.8
2017-11-03T11:25:50.493Z,27.8
2017-11-03T11:26:50.568Z,27.8
2017-11-03T11:27:52.291Z,27.9
2017-11-03T11:28:52.058Z,27.9
2017-11-03T11:29:52.411Z,27.9
2017-11-03T11:30:50.815Z,27.9
2017-11-03T11:31:52.498Z,28
2017-11-03T11:32:50.628Z,28
2017-11-03T11:33:52.552Z,28
2017-11-03T11:34:52.608Z,28
2017-11-03T11:35:50.693Z,28
2017-11-03T11:36:52.752Z,28.1
2017-11-03T11:37:50.763Z,28.1
2017-11-03T11:38:52.811Z,28.1
2017-11-03T11:39:50.891Z,28.2
2017-11-03T11:40:52.825Z,28.2
2017-11-03T11:41:51.219Z,28.3
2017-11-03T11:42:52.634Z,28.3
2017-11-03T11:43:51.044Z,28.5
2017-11-03T11:44:53.041Z,28.6
2017-11-03T11:45:52.719Z,28.9
2017-11-03T11:46:51.167Z,29.1
2017-11-03T11:47:52.882Z,29.2
2017-11-03T11:48:51.395Z,29.3
2017-11-03T11:49:52.871Z,29.3
2017-11-03T11:50:51.434Z,29.3
2017-11-03T11:51:53.009Z,29.2
2017-11-03T11:52:51.373Z,29
2017-11-03T11:53:53.016Z,29
2017-11-03T11:54:53.135Z,28.9
2017-11-03T11:55:53.153Z,28.9
2017-11-03T11:56:51.742Z,28.8
2017-11-03T11:57:53.464Z,28.7
2017-11-03T11:58:53.766Z,28.6
2017-11-03T11:59:52.136Z,28.5
2017-11-03T12:00:53.849Z,28.6
2017-11-03T12:01:53.488Z,28.5
2017-11-03T12:02:52.019Z,28.5
2017-11-03T12:03:51.994Z,28.5
2017-11-03T12:04:52.392Z,28.5
2017-11-03T12:05:53.707Z,28.5
2017-11-03T12:06:52.540Z,28.5
2017-11-03T12:07:53.824Z,28.5
2017-11-03T12:08:54.005Z,28.6
2017-11-03T12:09:52.421Z,28.6
2017-11-03T12:10:54.367Z,28.6
2017-11-03T12:11:54.417Z,28.6
2017-11-03T12:12:54.404Z,28.7
2017-11-03T12:13:54.176Z,28.8
2017-11-03T12:14:54.528Z,28.9
2017-11-03T12:15:52.595Z,29.1
2017-11-03T12:16:54.562Z,29.3
2017-11-03T12:17:54.314Z,29.4
2017-11-03T12:18:54.708Z,29.5
2017-11-03T12:19:54.775Z,29.5
2017-11-03T12:20:54.779Z,29.6
2017-11-03T12:21:53.266Z,29.7
2017-11-03T12:22:52.978Z,29.9
2017-11-03T12:23:54.672Z,30
2017-11-03T12:24:53.107Z,30.2
2017-11-03T12:25:53.075Z,30.3
2017-11-03T12:26:53.418Z,30.5
2017-11-03T12:27:55.121Z,30.6
2017-11-03T12:28:53.265Z,30.8
2017-11-03T12:29:55.161Z,31.1
2017-11-03T12:30:53.865Z,31.2
2017-11-03T12:31:53.854Z,31.4
2017-11-03T12:32:55.151Z,31.5
2017-11-03T12:33:55.240Z,31.6
2017-11-03T12:34:53.977Z,31.7
2017-11-03T12:35:55.674Z,31.8
2017-11-03T12:36:54.178Z,31.8
2017-11-03T12:37:54.185Z,31.7
2017-11-03T12:38:53.962Z,31.7
2017-11-03T12:39:55.953Z,31.5
2017-11-03T12:40:55.787Z,31.4
2017-11-03T12:41:54.103Z,31.3
2017-11-03T12:42:54.359Z,31.2
2017-11-03T12:43:55.899Z,31
2017-11-03T12:44:54.588Z,30.9
2017-11-03T12:45:54.406Z,30.8
2017-11-03T12:49:35.698Z,30.8
2017-11-03T12:50:37.699Z,30.8
2017-11-03T12:51:36.035Z,30.8
2017-11-03T12:52:36.163Z,30.8
2017-11-03T12:53:36.233Z,30.9
2017-11-03T12:54:37.841Z,30.9
2017-11-03T12:55:36.075Z,31
2017-11-03T12:56:36.359Z,31.1
2017-11-03T12:57:37.696Z,31.3
2017-11-03T12:58:37.989Z,31.6
2017-11-03T12:59:36.480Z,32
2017-11-03T13:00:37.996Z,32.4
2017-11-03T13:01:36.327Z,32.7
2017-11-03T13:02:36.669Z,32.9
2017-11-03T13:03:36.468Z,33
2017-11-03T13:04:38.426Z,32.9
2017-11-03T13:05:38.533Z,32.8
2017-11-03T13:06:38.358Z,32.7
2017-11-03T13:07:38.863Z,32.7
2017-11-03T13:08:38.406Z,32.8
2017-11-03T13:09:49.213Z,33.1
2017-11-03T13:10:44.146Z,33.4
2017-11-03T13:11:41.294Z,33.6
2017-11-03T13:12:37.013Z,33.8
2017-11-03T13:13:37.659Z,34
2017-11-03T13:14:37.245Z,34.1
2017-11-03T13:15:39.090Z,34
2017-11-03T13:16:39.166Z,33.9
2017-11-03T13:17:38.876Z,33.7
2017-11-03T13:18:37.752Z,33.8
2017-11-03T13:19:39.081Z,34.2
2017-11-03T13:20:37.848Z,34.6
2017-11-03T13:21:39.535Z,34.9
2017-11-03T13:22:39.318Z,35.1
2017-11-03T13:23:39.521Z,35.3